Norwegian Jewel — C6TX6 — position and weather

sailwx.info

Track history (hours):
 
Tides and Currents Weather Stations Pressure Air Temp Water Temp Dewpoint Dewpoint Depression Visibility Wind Speed Wind Dir Waves Ship Positions

Norwegian Jewel

Last reported at 2019-Sep-19 03:05 UTC. Time now 2019-Sep-21 11:17 UTC.
Position N 58°09' W 135°16'.

Type: Passenger vessel. MMSI: 311827000.

Date/timePositionNaut miles runAvg speedWind from/ knotsBaromVisibWave heightAir tempDewpointWater temp
2019-Sep-19 03:05N 58°09' W 135°16'1 9.4
2019-Sep-19 03:00N 58°09' W 135°18'5 9.2
2019-Sep-19 02:30N 58°08' W 135°26'1 1.5
2019-Sep-19 01:59N 58°08' W 135°28'0 0.2
2019-Sep-19 01:30N 58°08' W 135°28'0 0.0
2019-Sep-19 01:00N 58°08' W 135°28'0 0.0
2019-Sep-19 00:27N 58°08' W 135°28'0 0.0
2019-Sep-18 23:57N 58°08' W 135°28'0 0.0
2019-Sep-18 23:27N 58°08' W 135°28'0 0.0
2019-Sep-18 22:51N 58°08' W 135°28'0 0.0
2019-Sep-18 22:21N 58°08' W 135°28'0 0.0
2019-Sep-18 21:57N 58°08' W 135°28'0 0.0
2019-Sep-18 20:57N 58°08' W 135°28'0 0.0
2019-Sep-18 20:15N 58°08' W 135°28'311.3
2019-Sep-18 20:00N 58°06' W 135°24'3 1.8 270 / 51018.0 5.4 12.8
2019-Sep-18 18:21N 58°08' W 135°28'0 0.0
2019-Sep-18 17:33N 58°08' W 135°28'0 0.0
2019-Sep-18 17:27N 58°08' W 135°28'0 0.0
2019-Sep-18 16:25N 58°08' W 135°28'1 2.5
2019-Sep-18 15:57N 58°09' W 135°27'3 6.2
2019-Sep-18 15:27N 58°12' W 135°27'4 8.2
2019-Sep-18 15:00N 58°14' W 135°33'4 8.3
2019-Sep-18 14:30N 58°16' W 135°40'4 8.5
2019-Sep-18 14:00N 58°18' W 135°47'4 8.3
2019-Sep-18 13:30N 58°19' W 135°54'4 8.5
2019-Sep-18 13:00N 58°20' W 136°02'5 9.9
2019-Sep-18 12:30N 58°19' W 136°11'510.0
2019-Sep-18 12:00N 58°17' W 136°21'1015.5
2019-Sep-18 11:22N 58°11' W 136°34'11915.9
2019-Sep-18 03:52N 59°16' W 139°46'19411.5
2019-Sep-17 11:00N 59°24' W 146°06'108 8.3 180 / 121010.010.8 13.0
2019-Sep-16 22:00N 60°06' W 149°24'311 8.9 350 / 201004.0 5.4 15.0
2019-Sep-15 11:00N 59°00' W 139°24'10610.3 350 / 201014.0 5.4 12.0
2019-Sep-15 00:42N 58°18' W 136°18'419.6
2019-Sep-15 00:30N 58°19' W 136°11'917.9
2019-Sep-15 00:00N 58°25' W 135°58'713.1
2019-Sep-14 23:30N 58°31' W 136°04'1020.5
2019-Sep-14 23:00N 58°40' W 136°11'714.2
2019-Sep-14 22:30N 58°46' W 136°20'713.7
2019-Sep-14 22:00N 58°50' W 136°31'4 0.7
2019-Sep-14 17:02N 58°52' W 136°36'016.6
2019-Sep-14 17:00N 58°51' W 136°35'814.5
2019-Sep-14 16:26N 58°47' W 136°22'512.9
2019-Sep-14 16:01N 58°43' W 136°14'815.7
2019-Sep-14 15:31N 58°37' W 136°05'816.0
2019-Sep-14 15:00N 58°29' W 136°03'611.4
2019-Sep-14 14:30N 58°24' W 135°58'510.0
2019-Sep-14 14:00N 58°19' W 135°55'5 9.7
2019-Sep-14 13:30N 58°18' W 135°46'611.5
2019-Sep-14 13:00N 58°16' W 135°35'510.9
2019-Sep-14 12:30N 58°14' W 135°26'611.0
2019-Sep-14 11:58N 58°12' W 135°15'43 1.7
2019-Sep-13 11:00N 58°54' W 135°06'49 3.8 050 / 81008.9 5.4 12.0
2019-Sep-12 22:00N 58°12' W 134°18'208 6.3 100 / 111013.0 5.4 11.0
2019-Sep-11 12:54N 55°10' W 131°13'511.8
2019-Sep-11 12:30N 55°07' W 131°08'911.2
2019-Sep-11 11:42N 54°58' W 131°07'313.4
2019-Sep-11 11:30N 54°55' W 131°07'713.9
2019-Sep-11 11:00N 54°48' W 131°07'714.2
2019-Sep-11 10:29N 54°41' W 131°13'613.0
2019-Sep-11 10:00N 54°36' W 131°17'714.2
2019-Sep-11 09:30N 54°29' W 131°13'816.3
2019-Sep-11 09:00N 54°21' W 131°08'816.1
2019-Sep-11 08:30N 54°14' W 131°04'816.4
2019-Sep-11 08:00N 54°06' W 131°04'816.2
2019-Sep-11 07:31N 53°57' W 131°04'714.5
2019-Sep-11 07:00N 53°50' W 131°04'714.7
2019-Sep-11 06:31N 53°43' W 131°03'714.5
2019-Sep-11 06:00N 53°36' W 131°02'714.9
2019-Sep-11 05:30N 53°28' W 131°01'814.8
2019-Sep-11 05:00N 53°21' W 130°58'714.9
2019-Sep-11 04:30N 53°14' W 130°53'815.1
2019-Sep-11 04:00N 53°07' W 130°48'714.3
2019-Sep-11 03:30N 53°01' W 130°43'815.1
2019-Sep-11 03:01N 52°54' W 130°38'815.1
2019-Sep-11 02:30N 52°47' W 130°33'715.1
2019-Sep-11 02:01N 52°40' W 130°29'815.1
2019-Sep-11 01:31N 52°33' W 130°24'815.1
2019-Sep-11 01:01N 52°26' W 130°19'815.1
2019-Sep-11 00:30N 52°19' W 130°14'815.1
2019-Sep-11 00:00N 52°12' W 130°10'715.0
2019-Sep-10 23:30N 52°05' W 130°05'815.2
2019-Sep-10 23:01N 51°58' W 129°60'815.2
2019-Sep-10 22:30N 51°51' W 129°55'815.1
2019-Sep-10 22:00N 51°44' W 129°49'815.3
2019-Sep-10 21:30N 51°38' W 129°43'815.4
2019-Sep-10 21:01N 51°31' W 129°37'814.8
2019-Sep-10 20:27N 51°25' W 129°29'715.3
2019-Sep-10 20:01N 51°21' W 129°19'815.2
2019-Sep-10 19:31N 51°18' W 129°09'815.2
2019-Sep-10 19:01N 51°14' W 128°58'815.3
2019-Sep-10 18:31N 51°11' W 128°47'815.2
2019-Sep-10 18:00N 51°09' W 128°35'815.2
2019-Sep-10 17:30N 51°07' W 128°24'815.2
2019-Sep-10 17:00N 51°04' W 128°12'815.3
2019-Sep-10 16:30N 51°02' W 128°01'815.2
2019-Sep-10 16:00N 50°60' W 127°49'714.2
2019-Sep-10 15:31N 50°55' W 127°40'3017.6
2019-Sep-10 13:47N 50°42' W 126°57'4917.2
2019-Sep-10 10:56N 50°23' W 125°46'918.0
2019-Sep-10 10:26N 50°22' W 125°32'613.8
2019-Sep-10 10:00N 50°18' W 125°25'815.4
2019-Sep-10 09:30N 50°11' W 125°22'611.7
2019-Sep-10 09:00N 50°06' W 125°17'713.2
2019-Sep-10 08:30N 49°60' W 125°12'612.5
2019-Sep-10 08:00N 49°55' W 125°05'611.4
2019-Sep-10 07:30N 49°52' W 124°59'612.1
2019-Sep-10 07:01N 49°47' W 124°52'713.2
2019-Sep-10 06:30N 49°42' W 124°46'612.0
2019-Sep-10 06:00N 49°38' W 124°39'812.0
2019-Sep-10 05:22N 49°32' W 124°32'512.0
2019-Sep-10 04:58N 49°29' W 124°27'511.6
2019-Sep-10 04:30N 49°26' W 124°20'611.9
2019-Sep-10 04:00N 49°24' W 124°11'611.9
2019-Sep-10 03:30N 49°22' W 124°02'612.0
2019-Sep-10 03:00N 49°21' W 123°53'612.0
2019-Sep-10 02:30N 49°20' W 123°44'611.9
2019-Sep-10 02:00N 49°19' W 123°35'612.1
2019-Sep-10 01:30N 49°19' W 123°26'611.9
2019-Sep-10 01:00N 49°19' W 123°17'611.8
2019-Sep-10 00:30N 49°19' W 123°08'2 3.0
2019-Sep-10 00:00N 49°17' W 123°07'0 0.0
2019-Sep-09 23:30N 49°17' W 123°07'0 0.0
2019-Sep-09 23:00N 49°17' W 123°07'0 0.0
2019-Sep-09 22:30N 49°17' W 123°07'0 0.0
2019-Sep-09 22:00N 49°17' W 123°07'0 0.0
2019-Sep-09 21:30N 49°17' W 123°07'0 0.0
2019-Sep-09 21:00N 49°17' W 123°07'0 0.0
2019-Sep-09 20:30N 49°17' W 123°07'0 0.0
2019-Sep-09 20:00N 49°17' W 123°07'0 0.0
2019-Sep-09 19:30N 49°17' W 123°07'0 0.0
2019-Sep-09 18:57N 49°17' W 123°07'0 0.0
2019-Sep-09 18:30N 49°17' W 123°07'0 0.0
2019-Sep-09 18:00N 49°17' W 123°07'0 0.0
2019-Sep-09 17:30N 49°17' W 123°07'0 0.0
2019-Sep-09 17:00N 49°17' W 123°07'0 0.0
2019-Sep-09 16:30N 49°17' W 123°07'0 0.0
2019-Sep-09 16:00N 49°17' W 123°07'0 0.0
2019-Sep-09 15:30N 49°17' W 123°07'0 0.0
2019-Sep-09 15:00N 49°17' W 123°07'0 0.0
2019-Sep-09 14:30N 49°17' W 123°07'0 0.0
2019-Sep-09 14:00N 49°17' W 123°07'0 0.0
2019-Sep-09 13:30N 49°17' W 123°07'0 0.0
2019-Sep-09 13:00N 49°17' W 123°07'1 2.3
2019-Sep-09 12:30N 49°18' W 123°07'510.6
2019-Sep-09 12:00N 49°19' W 123°15'611.7
2019-Sep-09 11:30N 49°19' W 123°24'611.5
2019-Sep-09 11:00N 49°19' W 123°33'611.9
2019-Sep-09 10:30N 49°19' W 123°42'612.3
2019-Sep-09 10:00N 49°20' W 123°51'714.4
2019-Sep-09 09:30N 49°22' W 124°02'714.2
2019-Sep-09 09:00N 49°24' W 124°13'713.5
2019-Sep-09 08:30N 49°26' W 124°22'713.1
2019-Sep-09 08:00N 49°30' W 124°31'713.2
2019-Sep-09 07:29N 49°35' W 124°38'612.8
2019-Sep-09 07:00N 49°39' W 124°44'612.6
2019-Sep-09 06:31N 49°44' W 124°51'612.7
2019-Sep-09 06:01N 49°49' W 124°57'612.5
2019-Sep-09 05:30N 49°53' W 125°04'612.6
2019-Sep-09 05:00N 49°58' W 125°11'612.1
2019-Sep-09 04:30N 50°04' W 125°15'612.1
2019-Sep-09 04:01N 50°08' W 125°21'814.7
2019-Sep-09 03:30N 50°15' W 125°23'  
Track history (hours):
 
Tides and Currents Weather Stations Pressure Air Temp Water Temp Dewpoint Dewpoint Depression Visibility Wind Speed Wind Dir Waves Ship Positions

Norwegian Jewel

Last reported at 2019-Sep-19 03:05 UTC. Time now 2019-Sep-21 11:17 UTC.
Position N 58°09' W 135°16'.

Type: Passenger vessel. MMSI: 311827000.

Date/timePositionNaut miles runAvg speedWind from/ knotsBaromVisibWave heightAir tempDewpointWater temp
2019-Sep-19 03:05N 58°09' W 135°16'1 9.4
2019-Sep-19 03:00N 58°09' W 135°18'5 9.2
2019-Sep-19 02:30N 58°08' W 135°26'1 1.5
2019-Sep-19 01:59N 58°08' W 135°28'0 0.2
2019-Sep-19 01:30N 58°08' W 135°28'0 0.0
2019-Sep-19 01:00N 58°08' W 135°28'0 0.0
2019-Sep-19 00:27N 58°08' W 135°28'0 0.0
2019-Sep-18 23:57N 58°08' W 135°28'0 0.0
2019-Sep-18 23:27N 58°08' W 135°28'0 0.0
2019-Sep-18 22:51N 58°08' W 135°28'0 0.0
2019-Sep-18 22:21N 58°08' W 135°28'0 0.0
2019-Sep-18 21:57N 58°08' W 135°28'0 0.0
2019-Sep-18 20:57N 58°08' W 135°28'0 0.0
2019-Sep-18 20:15N 58°08' W 135°28'311.3
2019-Sep-18 20:00N 58°06' W 135°24'3 1.8 270 / 51018.0 5.4 12.8
2019-Sep-18 18:21N 58°08' W 135°28'0 0.0
2019-Sep-18 17:33N 58°08' W 135°28'0 0.0
2019-Sep-18 17:27N 58°08' W 135°28'0 0.0
2019-Sep-18 16:25N 58°08' W 135°28'1 2.5
2019-Sep-18 15:57N 58°09' W 135°27'3 6.2
2019-Sep-18 15:27N 58°12' W 135°27'4 8.2
2019-Sep-18 15:00N 58°14' W 135°33'4 8.3
2019-Sep-18 14:30N 58°16' W 135°40'4 8.5
2019-Sep-18 14:00N 58°18' W 135°47'4 8.3
2019-Sep-18 13:30N 58°19' W 135°54'4 8.5
2019-Sep-18 13:00N 58°20' W 136°02'5 9.9
2019-Sep-18 12:30N 58°19' W 136°11'510.0
2019-Sep-18 12:00N 58°17' W 136°21'1015.5
2019-Sep-18 11:22N 58°11' W 136°34'11915.9
2019-Sep-18 03:52N 59°16' W 139°46'19411.5
2019-Sep-17 11:00N 59°24' W 146°06'108 8.3 180 / 121010.010.8 13.0
2019-Sep-16 22:00N 60°06' W 149°24'311 8.9 350 / 201004.0 5.4 15.0
2019-Sep-15 11:00N 59°00' W 139°24'10610.3 350 / 201014.0 5.4 12.0
2019-Sep-15 00:42N 58°18' W 136°18'419.6
2019-Sep-15 00:30N 58°19' W 136°11'917.9
2019-Sep-15 00:00N 58°25' W 135°58'713.1
2019-Sep-14 23:30N 58°31' W 136°04'1020.5
2019-Sep-14 23:00N 58°40' W 136°11'714.2
2019-Sep-14 22:30N 58°46' W 136°20'713.7
2019-Sep-14 22:00N 58°50' W 136°31'4 0.7
2019-Sep-14 17:02N 58°52' W 136°36'016.6
2019-Sep-14 17:00N 58°51' W 136°35'814.5
2019-Sep-14 16:26N 58°47' W 136°22'512.9
2019-Sep-14 16:01N 58°43' W 136°14'815.7
2019-Sep-14 15:31N 58°37' W 136°05'816.0
2019-Sep-14 15:00N 58°29' W 136°03'611.4
2019-Sep-14 14:30N 58°24' W 135°58'510.0
2019-Sep-14 14:00N 58°19' W 135°55'5 9.7
2019-Sep-14 13:30N 58°18' W 135°46'611.5
2019-Sep-14 13:00N 58°16' W 135°35'510.9
2019-Sep-14 12:30N 58°14' W 135°26'611.0
2019-Sep-14 11:58N 58°12' W 135°15'43 1.7
2019-Sep-13 11:00N 58°54' W 135°06'49 3.8 050 / 81008.9 5.4 12.0
2019-Sep-12 22:00N 58°12' W 134°18'208 6.3 100 / 111013.0 5.4 11.0
2019-Sep-11 12:54N 55°10' W 131°13'511.8
2019-Sep-11 12:30N 55°07' W 131°08'911.2
2019-Sep-11 11:42N 54°58' W 131°07'313.4
2019-Sep-11 11:30N 54°55' W 131°07'713.9
2019-Sep-11 11:00N 54°48' W 131°07'714.2
2019-Sep-11 10:29N 54°41' W 131°13'613.0
2019-Sep-11 10:00N 54°36' W 131°17'714.2
2019-Sep-11 09:30N 54°29' W 131°13'816.3
2019-Sep-11 09:00N 54°21' W 131°08'816.1
2019-Sep-11 08:30N 54°14' W 131°04'816.4
2019-Sep-11 08:00N 54°06' W 131°04'816.2
2019-Sep-11 07:31N 53°57' W 131°04'714.5
2019-Sep-11 07:00N 53°50' W 131°04'714.7
2019-Sep-11 06:31N 53°43' W 131°03'714.5
2019-Sep-11 06:00N 53°36' W 131°02'714.9
2019-Sep-11 05:30N 53°28' W 131°01'814.8
2019-Sep-11 05:00N 53°21' W 130°58'714.9
2019-Sep-11 04:30N 53°14' W 130°53'815.1
2019-Sep-11 04:00N 53°07' W 130°48'714.3
2019-Sep-11 03:30N 53°01' W 130°43'815.1
2019-Sep-11 03:01N 52°54' W 130°38'815.1
2019-Sep-11 02:30N 52°47' W 130°33'715.1
2019-Sep-11 02:01N 52°40' W 130°29'815.1
2019-Sep-11 01:31N 52°33' W 130°24'815.1
2019-Sep-11 01:01N 52°26' W 130°19'815.1
2019-Sep-11 00:30N 52°19' W 130°14'815.1
2019-Sep-11 00:00N 52°12' W 130°10'715.0
2019-Sep-10 23:30N 52°05' W 130°05'815.2
2019-Sep-10 23:01N 51°58' W 129°60'815.2
2019-Sep-10 22:30N 51°51' W 129°55'815.1
2019-Sep-10 22:00N 51°44' W 129°49'815.3
2019-Sep-10 21:30N 51°38' W 129°43'815.4
2019-Sep-10 21:01N 51°31' W 129°37'814.8
2019-Sep-10 20:27N 51°25' W 129°29'715.3
2019-Sep-10 20:01N 51°21' W 129°19'815.2
2019-Sep-10 19:31N 51°18' W 129°09'815.2
2019-Sep-10 19:01N 51°14' W 128°58'815.3
2019-Sep-10 18:31N 51°11' W 128°47'815.2
2019-Sep-10 18:00N 51°09' W 128°35'815.2
2019-Sep-10 17:30N 51°07' W 128°24'815.2
2019-Sep-10 17:00N 51°04' W 128°12'815.3
2019-Sep-10 16:30N 51°02' W 128°01'815.2
2019-Sep-10 16:00N 50°60' W 127°49'714.2
2019-Sep-10 15:31N 50°55' W 127°40'3017.6
2019-Sep-10 13:47N 50°42' W 126°57'4917.2
2019-Sep-10 10:56N 50°23' W 125°46'918.0
2019-Sep-10 10:26N 50°22' W 125°32'613.8
2019-Sep-10 10:00N 50°18' W 125°25'815.4
2019-Sep-10 09:30N 50°11' W 125°22'611.7
2019-Sep-10 09:00N 50°06' W 125°17'713.2
2019-Sep-10 08:30N 49°60' W 125°12'612.5
2019-Sep-10 08:00N 49°55' W 125°05'611.4
2019-Sep-10 07:30N 49°52' W 124°59'612.1
2019-Sep-10 07:01N 49°47' W 124°52'713.2
2019-Sep-10 06:30N 49°42' W 124°46'612.0
2019-Sep-10 06:00N 49°38' W 124°39'812.0
2019-Sep-10 05:22N 49°32' W 124°32'512.0
2019-Sep-10 04:58N 49°29' W 124°27'511.6
2019-Sep-10 04:30N 49°26' W 124°20'611.9
2019-Sep-10 04:00N 49°24' W 124°11'611.9
2019-Sep-10 03:30N 49°22' W 124°02'612.0
2019-Sep-10 03:00N 49°21' W 123°53'612.0
2019-Sep-10 02:30N 49°20' W 123°44'611.9
2019-Sep-10 02:00N 49°19' W 123°35'612.1
2019-Sep-10 01:30N 49°19' W 123°26'611.9
2019-Sep-10 01:00N 49°19' W 123°17'611.8
2019-Sep-10 00:30N 49°19' W 123°08'2 3.0
2019-Sep-10 00:00N 49°17' W 123°07'0 0.0
2019-Sep-09 23:30N 49°17' W 123°07'0 0.0
2019-Sep-09 23:00N 49°17' W 123°07'0 0.0
2019-Sep-09 22:30N 49°17' W 123°07'0 0.0
2019-Sep-09 22:00N 49°17' W 123°07'0 0.0
2019-Sep-09 21:30N 49°17' W 123°07'0 0.0
2019-Sep-09 21:00N 49°17' W 123°07'0 0.0
2019-Sep-09 20:30N 49°17' W 123°07'0 0.0
2019-Sep-09 20:00N 49°17' W 123°07'0 0.0
2019-Sep-09 19:30N 49°17' W 123°07'0 0.0
2019-Sep-09 18:57N 49°17' W 123°07'0 0.0
2019-Sep-09 18:30N 49°17' W 123°07'0 0.0
2019-Sep-09 18:00N 49°17' W 123°07'0 0.0
2019-Sep-09 17:30N 49°17' W 123°07'0 0.0
2019-Sep-09 17:00N 49°17' W 123°07'0 0.0
2019-Sep-09 16:30N 49°17' W 123°07'0 0.0
2019-Sep-09 16:00N 49°17' W 123°07'0 0.0
2019-Sep-09 15:30N 49°17' W 123°07'0 0.0
2019-Sep-09 15:00N 49°17' W 123°07'0 0.0
2019-Sep-09 14:30N 49°17' W 123°07'0 0.0
2019-Sep-09 14:00N 49°17' W 123°07'0 0.0
2019-Sep-09 13:30N 49°17' W 123°07'0 0.0
2019-Sep-09 13:00N 49°17' W 123°07'1 2.3
2019-Sep-09 12:30N 49°18' W 123°07'510.6
2019-Sep-09 12:00N 49°19' W 123°15'611.7
2019-Sep-09 11:30N 49°19' W 123°24'611.5
2019-Sep-09 11:00N 49°19' W 123°33'611.9
2019-Sep-09 10:30N 49°19' W 123°42'612.3
2019-Sep-09 10:00N 49°20' W 123°51'714.4
2019-Sep-09 09:30N 49°22' W 124°02'714.2
2019-Sep-09 09:00N 49°24' W 124°13'713.5
2019-Sep-09 08:30N 49°26' W 124°22'713.1
2019-Sep-09 08:00N 49°30' W 124°31'713.2
2019-Sep-09 07:29N 49°35' W 124°38'612.8
2019-Sep-09 07:00N 49°39' W 124°44'612.6
2019-Sep-09 06:31N 49°44' W 124°51'612.7
2019-Sep-09 06:01N 49°49' W 124°57'612.5
2019-Sep-09 05:30N 49°53' W 125°04'612.6
2019-Sep-09 05:00N 49°58' W 125°11'612.1
2019-Sep-09 04:30N 50°04' W 125°15'612.1
2019-Sep-09 04:01N 50°08' W 125°21'814.7
2019-Sep-09 03:30N 50°15' W 125°23'  

Dump ship's entire track history